»·PEaware :: UAL2500 KIAH-KBFI

UAL2500 :: KIAH-KBFI

FLIGHT INFORMATION

Flight Status: Arrived
Operator:
United Airlines
More flights by this operator :: More flights under this callsign
Pilot: Evan B. (39662)
Aircraft: BOEING 737-900
(B739)
More flights by this aircraft type
Origin: KIAH G Bush Intercontinental/Houst
United States
Destination: KBFI Boeing Field/King Co Intl
United States
More flights between these airports :: More routes between these airports
Route: STYCK8 DOLEY FUZ PNH TBE EKR PIH PDT CHINS5
File this flight plan on PilotEdge
Remarks: RMK / SIMBRIEF
Altitude:
(Current/Filed)
32,000ft
Speed:
(Current/Filed)
472kts
Departed: 15-Jul-23 01:41 PM
Arrived: 15-Jul-23 04:53 PM
Distance/Time
Traveled:
1628nm/3:12
Distance/Time
To Go:
Arrived

Flight Plot

Page will automatically refresh every two minutes.

Flight plan parsing failed; only flown route is shown


Map Options




Map Legend


Flown Route
Filed Route
Departure Airport
Arrival Airport
Navaid (VOR, NDB)
Fix

Horizontal Profiles

Position Reports

Time Latitude Longitude Heading Altitude Ground
Speed
15-Jul-23 13:39 34.274447 -99.778552 299 32027ft 446kts
15-Jul-23 13:40 34.340008 -99.906349 299 32040ft 447kts
15-Jul-23 13:41 34.405388 -100.034250 299 32084ft 448kts
15-Jul-23 13:42 34.470752 -100.162580 299 32121ft 449kts
15-Jul-23 13:43 34.536351 -100.291840 299 32130ft 449kts
15-Jul-23 13:44 34.601776 -100.421229 299 32093ft 449kts
15-Jul-23 13:45 34.666901 -100.550502 299 32047ft 449kts
15-Jul-23 13:46 34.732035 -100.680266 299 32037ft 449kts
15-Jul-23 13:47 34.797019 -100.810213 299 32043ft 449kts
15-Jul-23 13:48 34.861748 -100.940125 299 32040ft 450kts
15-Jul-23 13:49 34.926447 -101.070464 299 32035ft 449kts
15-Jul-23 13:50 34.991145 -101.201290 299 32050ft 449kts
15-Jul-23 13:51 35.055341 -101.331594 299 32061ft 448kts
15-Jul-23 13:52 35.119161 -101.461617 299 32125ft 447kts
15-Jul-23 13:53 35.182983 -101.592132 299 32195ft 446kts
15-Jul-23 13:54 35.254174 -101.716004 315 32209ft 450kts
15-Jul-23 13:55 35.354713 -101.808321 320 32166ft 451kts
15-Jul-23 13:56 35.455416 -101.899997 320 32089ft 451kts
15-Jul-23 13:57 35.555759 -101.991976 320 32089ft 449kts
15-Jul-23 13:58 35.655675 -102.083867 320 32157ft 447kts
15-Jul-23 13:59 35.755024 -102.175525 320 32174ft 446kts
15-Jul-23 14:00 35.853774 -102.266922 319 32152ft 444kts
15-Jul-23 14:01 35.952432 -102.358528 319 32183ft 442kts
15-Jul-23 14:02 36.050632 -102.449999 319 32238ft 441kts
15-Jul-23 14:03 36.148503 -102.541457 319 32216ft 440kts
15-Jul-23 14:04 36.246042 -102.632898 319 32142ft 440kts
15-Jul-23 14:05 36.343677 -102.724724 319 32081ft 440kts
15-Jul-23 14:06 36.440896 -102.816452 319 32138ft 440kts
15-Jul-23 14:07 36.538434 -102.908780 319 32180ft 440kts
15-Jul-23 14:08 36.635709 -103.001158 319 32176ft 440kts
15-Jul-23 14:09 36.732753 -103.093615 319 32126ft 439kts
15-Jul-23 14:10 36.829678 -103.186265 319 32080ft 438kts
15-Jul-23 14:11 36.926003 -103.278645 319 32076ft 437kts
15-Jul-23 14:12 37.022324 -103.371331 319 32080ft 436kts
15-Jul-23 14:13 37.118581 -103.464257 318 32071ft 436kts
15-Jul-23 14:14 37.214486 -103.557141 318 32066ft 437kts
15-Jul-23 14:15 37.301602 -103.661421 308 32051ft 432kts
15-Jul-23 14:16 37.380392 -103.775900 308 32050ft 433kts
15-Jul-23 14:17 37.459406 -103.890543 308 32036ft 433kts
15-Jul-23 14:18 37.538165 -104.005234 308 32032ft 432kts
15-Jul-23 14:19 37.616473 -104.119676 308 32035ft 430kts
15-Jul-23 14:20 37.694604 -104.234268 308 32039ft 430kts
15-Jul-23 14:21 37.772514 -104.348936 308 32039ft 430kts
15-Jul-23 14:22 37.850062 -104.463478 308 32034ft 430kts
15-Jul-23 14:23 37.927785 -104.578676 308 32039ft 430kts
15-Jul-23 14:24 37.990345 -104.671710 308 32066ft 429kts
15-Jul-23 14:25 38.082593 -104.809372 308 32083ft 429kts
15-Jul-23 14:26 38.159822 -104.925076 308 32094ft 428kts
15-Jul-23 14:27 38.236419 -105.040240 308 32128ft 426kts
15-Jul-23 14:28 38.312919 -105.155679 308 32038ft 426kts
15-Jul-23 14:29 38.388768 -105.270535 307 31985ft 423kts
15-Jul-23 14:30 38.464452 -105.385570 307 31993ft 423kts
15-Jul-23 14:31 38.540362 -105.501383 307 32003ft 425kts
15-Jul-23 14:32 38.615666 -105.616659 307 32026ft 420kts
15-Jul-23 14:33 38.690333 -105.731346 307 32102ft 420kts
15-Jul-23 14:34 38.765373 -105.847050 307 32195ft 422kts
15-Jul-23 14:35 38.840432 -105.963206 307 32322ft 423kts
15-Jul-23 14:36 38.915341 -106.079522 307 32339ft 423kts
15-Jul-23 14:37 38.989973 -106.195887 307 32252ft 422kts
15-Jul-23 14:38 39.064818 -106.312970 307 32425ft 424kts
15-Jul-23 14:39 39.139625 -106.430430 306 32496ft 423kts
15-Jul-23 14:40 39.214383 -106.548273 307 32387ft 426kts
15-Jul-23 14:41 39.289774 -106.667559 306 32294ft 428kts
15-Jul-23 14:42 39.364387 -106.786003 306 32316ft 423kts
15-Jul-23 14:43 39.437858 -106.903063 306 32192ft 416kts
15-Jul-23 14:44 39.511031 -107.020199 306 32261ft 421kts
15-Jul-23 14:45 39.584784 -107.138634 306 32228ft 423kts
15-Jul-23 14:46 39.658579 -107.257610 306 32126ft 421kts
15-Jul-23 14:47 39.731797 -107.376060 306 32104ft 421kts
15-Jul-23 14:48 39.805028 -107.494975 306 32107ft 423kts
15-Jul-23 14:49 39.878484 -107.614721 306 32186ft 422kts
15-Jul-23 14:50 39.951478 -107.734192 306 32284ft 421kts
15-Jul-23 14:51 40.024141 -107.853572 306 32336ft 421kts
15-Jul-23 14:52 40.097313 -107.972547 307 32340ft 419kts
15-Jul-23 14:53 40.172204 -108.089289 307 32225ft 418kts
15-Jul-23 14:54 40.246755 -108.206364 307 32084ft 419kts
15-Jul-23 14:55 40.320983 -108.323621 306 32033ft 419kts
15-Jul-23 14:56 40.395257 -108.441417 306 32033ft 418kts
15-Jul-23 14:57 40.469188 -108.559125 306 32036ft 419kts
15-Jul-23 14:58 40.543144 -108.677312 306 32042ft 418kts
15-Jul-23 14:59 40.616993 -108.795785 306 32046ft 418kts
15-Jul-23 15:00 40.690708 -108.914502 307 32086ft 419kts
15-Jul-23 15:01 40.764604 -109.033958 306 32073ft 420kts
15-Jul-23 15:02 40.838263 -109.153512 306 32091ft 418kts
15-Jul-23 15:03 40.911359 -109.272608 306 32087ft 416kts
15-Jul-23 15:04 40.983915 -109.391289 305 32101ft 415kts
15-Jul-23 15:05 41.056376 -109.510275 305 32104ft 415kts
15-Jul-23 15:06 41.128999 -109.629992 305 32098ft 416kts
15-Jul-23 15:07 41.201279 -109.749592 305 32091ft 416kts
15-Jul-23 15:08 41.273484 -109.869571 305 32095ft 417kts
15-Jul-23 15:09 41.345762 -109.990136 305 32150ft 417kts
15-Jul-23 15:10 41.417907 -110.110950 305 32265ft 416kts
15-Jul-23 15:11 41.490074 -110.232283 305 32336ft 416kts
15-Jul-23 15:12 41.561697 -110.353176 305 32324ft 416kts
15-Jul-23 15:13 41.633136 -110.474240 305 32301ft 415kts
15-Jul-23 15:14 41.704417 -110.595526 305 32385ft 414kts
15-Jul-23 15:15 41.775447 -110.716882 305 32375ft 415kts
15-Jul-23 15:16 41.846523 -110.838791 305 32283ft 415kts
15-Jul-23 15:17 41.917655 -110.961301 305 32162ft 416kts
15-Jul-23 15:18 41.988520 -111.083835 305 32106ft 415kts
15-Jul-23 15:19 42.059531 -111.207142 305 32101ft 416kts
15-Jul-23 15:20 42.130242 -111.330419 305 32108ft 416kts
15-Jul-23 15:21 42.200896 -111.454095 305 32115ft 416kts
15-Jul-23 15:23 42.271304 -111.577875 305 32108ft 417kts
15-Jul-23 15:24 42.341858 -111.702407 305 32106ft 416kts
15-Jul-23 15:25 42.411982 -111.826731 307 32048ft 414kts
15-Jul-23 15:26 42.481600 -111.950608 307 32095ft 414kts
15-Jul-23 15:27 42.551338 -112.075225 307 32110ft 414kts
15-Jul-23 15:28 42.620918 -112.200109 307 32111ft 414kts
15-Jul-23 15:29 42.690161 -112.324904 307 32139ft 413kts
15-Jul-23 15:30 42.759087 -112.449655 307 32187ft 413kts
15-Jul-23 15:31 42.828230 -112.575329 307 32232ft 415kts
15-Jul-23 15:32 42.896101 -112.701940 304 32228ft 414kts
15-Jul-23 15:33 42.960340 -112.832182 304 32173ft 413kts
15-Jul-23 15:34 43.024788 -112.962421 304 32098ft 414kts
15-Jul-23 15:35 43.089127 -113.092697 304 32051ft 414kts
15-Jul-23 15:36 43.153540 -113.223679 304 32050ft 415kts
15-Jul-23 15:37 43.218085 -113.355529 304 32041ft 416kts
15-Jul-23 15:38 43.282337 -113.487364 304 32031ft 416kts
15-Jul-23 15:39 43.346480 -113.619564 303 32031ft 416kts
15-Jul-23 15:40 43.410663 -113.752447 303 32036ft 416kts
15-Jul-23 15:41 43.474249 -113.884717 303 32103ft 414kts
15-Jul-23 15:42 43.537854 -114.017563 303 32172ft 415kts
15-Jul-23 15:43 43.601017 -114.150092 303 32228ft 415kts
15-Jul-23 15:44 43.664294 -114.283509 303 32219ft 416kts
15-Jul-23 15:45 43.727467 -114.417285 302 32160ft 414kts
15-Jul-23 15:46 43.790096 -114.550542 302 32131ft 414kts
15-Jul-23 15:47 43.852928 -114.684818 302 32119ft 414kts
15-Jul-23 15:48 43.915463 -114.819074 302 32124ft 416kts
15-Jul-23 15:48 43.967836 -114.932004 302 32120ft 418kts
15-Jul-23 15:49 44.030716 -115.068158 302 32100ft 418kts
15-Jul-23 15:51 44.103595 -115.226776 302 32091ft 416kts
15-Jul-23 15:52 44.165547 -115.362323 301 32091ft 415kts
15-Jul-23 15:52 44.217236 -115.475890 301 32100ft 416kts
15-Jul-23 15:53 44.279051 -115.612286 301 32089ft 417kts
15-Jul-23 15:54 44.340877 -115.749359 301 32102ft 418kts
15-Jul-23 15:55 44.402795 -115.887296 301 32105ft 419kts
15-Jul-23 15:57 44.474779 -116.048486 300 32089ft 418kts
15-Jul-23 15:57 44.525863 -116.163431 300 32101ft 418kts
15-Jul-23 15:58 44.587357 -116.302442 300 32117ft 420kts
15-Jul-23 15:59 44.648827 -116.442025 300 32091ft 419kts
15-Jul-23 16:00 44.709724 -116.580996 300 32071ft 417kts
15-Jul-23 16:01 44.770178 -116.719658 299 32086ft 417kts
15-Jul-23 16:02 44.831031 -116.859929 299 32078ft 421kts
15-Jul-23 16:03 44.891867 -117.000791 299 32084ft 420kts
15-Jul-23 16:04 44.952358 -117.141585 298 32089ft 419kts
15-Jul-23 16:05 45.012524 -117.282322 298 32095ft 419kts
15-Jul-23 16:06 45.072825 -117.424077 298 32089ft 420kts
15-Jul-23 16:07 45.132722 -117.565603 298 32085ft 419kts
15-Jul-23 16:08 45.192491 -117.707544 298 32097ft 419kts
15-Jul-23 16:09 45.252069 -117.849740 297 32121ft 419kts
15-Jul-23 16:10 45.311322 -117.991872 297 32102ft 418kts
15-Jul-23 16:11 45.370309 -118.134097 297 32107ft 418kts
15-Jul-23 16:12 45.429304 -118.277049 297 32093ft 418kts
15-Jul-23 16:13 45.487881 -118.419723 297 32089ft 417kts
15-Jul-23 16:14 45.546407 -118.563018 296 32055ft 418kts
15-Jul-23 16:15 45.604566 -118.706157 296 32024ft 418kts
15-Jul-23 16:16 45.662828 -118.850256 296 32025ft 417kts
15-Jul-23 16:17 45.727137 -118.988008 305 32030ft 423kts
15-Jul-23 16:18 45.803633 -119.116165 305 31981ft 423kts
15-Jul-23 16:19 45.879750 -119.245186 304 31981ft 423kts
15-Jul-23 16:20 45.955554 -119.374355 304 31977ft 423kts
15-Jul-23 16:21 46.031468 -119.504311 304 31959ft 423kts
15-Jul-23 16:22 46.107124 -119.634439 304 31952ft 423kts
15-Jul-23 16:23 46.182383 -119.764455 304 31953ft 423kts
15-Jul-23 16:24 46.257760 -119.895382 303 31960ft 423kts
15-Jul-23 16:25 46.331702 -120.024167 303 31952ft 406kts
15-Jul-23 16:26 46.403735 -120.150579 303 30292ft 404kts
15-Jul-23 16:27 46.473644 -120.273557 303 27584ft 387kts
15-Jul-23 16:28 46.540792 -120.392326 304 25113ft 376kts
15-Jul-23 16:29 46.603216 -120.511593 299 23167ft 367kts
15-Jul-23 16:30 46.661440 -120.635308 300 21633ft 367kts
15-Jul-23 16:31 46.718853 -120.756101 300 20197ft 360kts
15-Jul-23 16:32 46.775325 -120.875393 299 18777ft 355kts
15-Jul-23 16:33 46.831045 -120.993555 300 17252ft 351kts
15-Jul-23 16:34 46.885866 -121.110500 300 15882ft 347kts
15-Jul-23 16:35 46.940483 -121.227340 300 14496ft 349kts
15-Jul-23 16:36 46.994615 -121.343624 300 13045ft 337kts
15-Jul-23 16:37 47.046670 -121.455965 301 11731ft 332kts
15-Jul-23 16:38 47.094529 -121.559395 300 11032ft 285kts
15-Jul-23 16:39 47.140344 -121.645869 308 10040ft 275kts
15-Jul-23 16:40 47.190685 -121.729647 308 8778ft 268kts
15-Jul-23 16:41 47.235864 -121.805987 307 7838ft 230kts
15-Jul-23 16:42 47.274931 -121.872538 309 6163ft 207kts
15-Jul-23 16:43 47.311350 -121.934741 309 5166ft 190kts
15-Jul-23 16:44 47.345482 -121.994724 301 4056ft 191kts
15-Jul-23 16:45 47.369188 -122.062768 295 3627ft 178kts
15-Jul-23 16:46 47.388457 -122.125056 296 2321ft 163kts
15-Jul-23 16:47 47.406557 -122.180465 300 2290ft 145kts
15-Jul-23 16:48 47.434608 -122.221893 331 1885ft 149kts
15-Jul-23 16:49 47.469291 -122.251202 330 1156ft 137kts
15-Jul-23 16:50 47.502260 -122.279123 331 480ft 143kts
15-Jul-23 16:51 47.532645 -122.304678 330 26ft 69kts
15-Jul-23 16:52 47.540891 -122.310232 57 28ft 13kts
15-Jul-23 16:53 47.536100 -122.304731 141 26ft 22kts
15-Jul-23 16:54 47.530389 -122.299806 149 27ft 24kts
15-Jul-23 16:55 47.527188 -122.297198 240 25ft 7kts
15-Jul-23 16:56 47.527135 -122.297336 240 28ft 0kts
15-Jul-23 16:57 47.527135 -122.297336 240 28ft 0kts
15-Jul-23 16:58 47.527135 -122.297336 240 28ft 0kts

Navigation Log

Ident Type
Flight plan parsing failed, navigation log unavailable